ELLX

Luxembourg-Findel International Airport

Luxembourg, Luxembourg
METAR ELLX 220220Z AUTO VRB02KT 9999 NCD 13/11 Q1012 NOSIG
Observed Flight Rules
May-22 @ 02:20 UTC (21 minutes ago) Visual Flight Rules
Wind Visibility Clouds
Variable at 2 knots 10,000+ meters
  • Clear skies
Temperatures Readings
Current 13°C / 55°F
Dewpoint 11°C / 52°F
Humidity 88%
Altimeter 29.88" Hg
Pressure 1012 hPa
Elevation 379
METAR ELLX 220220Z AUTO VRB02KT 9999 NCD 13/11 Q1012 NOSIG
Observed Flight Rules
May-22 @ 02:20 UTC
(21 minutes ago)
VFR
Wind Visibility
Variable at 2 knots 10,000+ meters
Clouds
  • Clear skies
Temperature Dewpoint
13°C / 55°F 11°C / 52°F
Humidity Altimeter Pressure
88% 29.88" Hg 1012 hPa